sensor_id;sensor_type;location;lat;lon;timestamp;pressure;altitude;pressure_sealevel;temperature;humidity
18697;BME280;22617;43.690;27.956;2023-06-22T00:02:54;99098.84;;;20.15;83.35
18697;BME280;22617;43.690;27.956;2023-06-22T00:08:02;99091.53;;;20.21;82.54
18697;BME280;22617;43.690;27.956;2023-06-22T00:13:08;99101.47;;;20.15;82.51
18697;BME280;22617;43.690;27.956;2023-06-22T00:18:12;99103.66;;;20.05;82.77
18697;BME280;22617;43.690;27.956;2023-06-22T00:23:16;99104.28;;;20.12;83.11
18697;BME280;22617;43.690;27.956;2023-06-22T00:28:21;99106.47;;;20.22;81.95
18697;BME280;22617;43.690;27.956;2023-06-22T00:33:25;99110.09;;;20.20;81.84
18697;BME280;22617;43.690;27.956;2023-06-22T00:38:30;99105.28;;;20.09;81.79
18697;BME280;22617;43.690;27.956;2023-06-22T00:43:35;99105.28;;;20.09;82.24
18697;BME280;22617;43.690;27.956;2023-06-22T00:48:40;99102.97;;;20.22;81.52
18697;BME280;22617;43.690;27.956;2023-06-22T00:53:44;99097.56;;;20.03;81.31
18697;BME280;22617;43.690;27.956;2023-06-22T00:58:50;99105.25;;;19.87;82.07
18697;BME280;22617;43.690;27.956;2023-06-22T01:03:55;99101.00;;;19.83;82.74
18697;BME280;22617;43.690;27.956;2023-06-22T01:09:04;99097.31;;;19.87;82.67
18697;BME280;22617;43.690;27.956;2023-06-22T01:14:15;99090.56;;;20.02;81.93
18697;BME280;22617;43.690;27.956;2023-06-22T01:19:34;99081.47;;;20.09;81.29
18697;BME280;22617;43.690;27.956;2023-06-22T01:24:44;99085.06;;;20.07;81.23
18697;BME280;22617;43.690;27.956;2023-06-22T01:29:53;99075.78;;;19.96;81.11
18697;BME280;22617;43.690;27.956;2023-06-22T01:35:07;99084.88;;;19.68;81.48
18697;BME280;22617;43.690;27.956;2023-06-22T01:40:12;99087.94;;;19.80;81.99
18697;BME280;22617;43.690;27.956;2023-06-22T01:45:17;99085.81;;;19.88;81.65
18697;BME280;22617;43.690;27.956;2023-06-22T01:50:22;99096.16;;;19.94;80.97
18697;BME280;22617;43.690;27.956;2023-06-22T01:55:25;99094.38;;;19.95;80.69
18697;BME280;22617;43.690;27.956;2023-06-22T02:00:32;99109.41;;;19.94;80.43
18697;BME280;22617;43.690;27.956;2023-06-22T02:05:39;99111.13;;;19.50;80.99
18697;BME280;22617;43.690;27.956;2023-06-22T02:10:46;99113.81;;;19.49;82.16
18697;BME280;22617;43.690;27.956;2023-06-22T02:15:53;99107.50;;;19.53;82.32
18697;BME280;22617;43.690;27.956;2023-06-22T02:20:57;99112.88;;;19.51;81.28
18697;BME280;22617;43.690;27.956;2023-06-22T02:26:03;99114.22;;;19.62;81.30
18697;BME280;22617;43.690;27.956;2023-06-22T02:31:08;99117.47;;;19.68;80.95
18697;BME280;22617;43.690;27.956;2023-06-22T02:36:12;99112.06;;;19.71;80.60
18697;BME280;22617;43.690;27.956;2023-06-22T02:41:15;99125.28;;;19.71;80.66
18697;BME280;22617;43.690;27.956;2023-06-22T02:46:22;99128.59;;;19.54;81.38
18697;BME280;22617;43.690;27.956;2023-06-22T02:51:26;99148.03;;;19.53;81.60
18697;BME280;22617;43.690;27.956;2023-06-22T02:56:30;99133.84;;;19.56;81.79
18697;BME280;22617;43.690;27.956;2023-06-22T03:01:37;99134.13;;;19.48;82.11
18697;BME280;22617;43.690;27.956;2023-06-22T03:07:03;99139.00;;;19.59;82.47
18697;BME280;22617;43.690;27.956;2023-06-22T03:12:08;99143.16;;;19.66;82.16
18697;BME280;22617;43.690;27.956;2023-06-22T03:17:25;99147.50;;;19.67;82.76
18697;BME280;22617;43.690;27.956;2023-06-22T03:22:28;99151.13;;;19.65;83.31
18697;BME280;22617;43.690;27.956;2023-06-22T03:27:32;99151.19;;;19.63;84.08
18697;BME280;22617;43.690;27.956;2023-06-22T03:32:37;99167.88;;;19.65;83.95
18697;BME280;22617;43.690;27.956;2023-06-22T03:37:41;99149.28;;;19.67;84.52
18697;BME280;22617;43.690;27.956;2023-06-22T03:42:45;99157.28;;;19.65;84.89
18697;BME280;22617;43.690;27.956;2023-06-22T03:47:50;99156.94;;;19.74;84.11
18697;BME280;22617;43.690;27.956;2023-06-22T03:52:54;99164.78;;;19.99;82.23
18697;BME280;22617;43.690;27.956;2023-06-22T03:57:58;99162.13;;;19.99;82.44
18697;BME280;22617;43.690;27.956;2023-06-22T04:03:09;99164.50;;;20.05;82.05
18697;BME280;22617;43.690;27.956;2023-06-22T04:08:14;99181.94;;;20.11;82.06
18697;BME280;22617;43.690;27.956;2023-06-22T04:13:18;99179.00;;;20.18;82.37
18697;BME280;22617;43.690;27.956;2023-06-22T04:18:23;99182.25;;;20.25;81.17
18697;BME280;22617;43.690;27.956;2023-06-22T04:23:27;99173.63;;;20.43;80.80
18697;BME280;22617;43.690;27.956;2023-06-22T04:28:30;99187.34;;;20.53;80.28
18697;BME280;22617;43.690;27.956;2023-06-22T04:33:38;99182.19;;;20.70;79.96
18697;BME280;22617;43.690;27.956;2023-06-22T04:38:42;99186.22;;;20.78;79.75
18697;BME280;22617;43.690;27.956;2023-06-22T04:43:46;99194.59;;;20.89;79.50
18697;BME280;22617;43.690;27.956;2023-06-22T04:48:57;99193.28;;;21.00;78.88
18697;BME280;22617;43.690;27.956;2023-06-22T04:54:01;99191.00;;;21.11;78.96
18697;BME280;22617;43.690;27.956;2023-06-22T04:59:04;99185.88;;;21.28;78.60
18697;BME280;22617;43.690;27.956;2023-06-22T05:04:09;99184.59;;;21.37;78.30
18697;BME280;22617;43.690;27.956;2023-06-22T05:09:13;99190.06;;;21.52;77.74
18697;BME280;22617;43.690;27.956;2023-06-22T05:14:18;99178.69;;;21.69;77.92
18697;BME280;22617;43.690;27.956;2023-06-22T05:19:23;99189.03;;;21.94;77.41
18697;BME280;22617;43.690;27.956;2023-06-22T05:24:26;99179.28;;;22.13;76.69
18697;BME280;22617;43.690;27.956;2023-06-22T05:29:30;99188.22;;;22.29;75.76
18697;BME280;22617;43.690;27.956;2023-06-22T05:34:35;99183.56;;;22.51;74.63
18697;BME280;22617;43.690;27.956;2023-06-22T05:39:40;99193.03;;;22.76;74.72
18697;BME280;22617;43.690;27.956;2023-06-22T05:44:43;99190.69;;;22.87;74.57
18697;BME280;22617;43.690;27.956;2023-06-22T05:49:50;99193.03;;;23.10;73.45
18697;BME280;22617;43.690;27.956;2023-06-22T05:54:53;99196.38;;;23.31;71.87
18697;BME280;22617;43.690;27.956;2023-06-22T05:59:57;99194.06;;;23.58;71.63
18697;BME280;22617;43.690;27.956;2023-06-22T06:05:02;99193.41;;;23.85;72.25
18697;BME280;22617;43.690;27.956;2023-06-22T06:10:07;99197.03;;;24.00;70.56
18697;BME280;22617;43.690;27.956;2023-06-22T06:15:11;99197.84;;;24.18;70.35
18697;BME280;22617;43.690;27.956;2023-06-22T06:20:17;99196.97;;;24.49;69.05
18697;BME280;22617;43.690;27.956;2023-06-22T06:25:21;99194.59;;;24.74;68.42
18697;BME280;22617;43.690;27.956;2023-06-22T06:30:25;99195.91;;;25.12;67.54
18697;BME280;22617;43.690;27.956;2023-06-22T06:35:31;99192.97;;;25.31;65.59
18697;BME280;22617;43.690;27.956;2023-06-22T06:40:34;99193.63;;;25.49;64.30
18697;BME280;22617;43.690;27.956;2023-06-22T06:45:38;99193.88;;;25.60;62.99
18697;BME280;22617;43.690;27.956;2023-06-22T06:50:43;99202.53;;;25.92;62.95
18697;BME280;22617;43.690;27.956;2023-06-22T06:55:46;99209.94;;;26.15;61.25
18697;BME280;22617;43.690;27.956;2023-06-22T07:00:50;99205.16;;;26.20;60.15
18697;BME280;22617;43.690;27.956;2023-06-22T07:05:55;99211.69;;;26.43;61.70
18697;BME280;22617;43.690;27.956;2023-06-22T07:10:59;99211.31;;;26.76;60.56
18697;BME280;22617;43.690;27.956;2023-06-22T07:16:03;99211.63;;;27.11;61.63
18697;BME280;22617;43.690;27.956;2023-06-22T07:21:08;99215.56;;;27.05;57.60
18697;BME280;22617;43.690;27.956;2023-06-22T07:26:12;99211.56;;;26.85;59.60
18697;BME280;22617;43.690;27.956;2023-06-22T07:31:15;99206.03;;;26.62;58.62
18697;BME280;22617;43.690;27.956;2023-06-22T07:36:21;99212.72;;;25.99;59.77
18697;BME280;22617;43.690;27.956;2023-06-22T07:41:24;99217.31;;;25.55;61.09
18697;BME280;22617;43.690;27.956;2023-06-22T07:46:28;99221.69;;;26.13;58.83
18697;BME280;22617;43.690;27.956;2023-06-22T07:51:35;99214.59;;;26.94;58.16
18697;BME280;22617;43.690;27.956;2023-06-22T07:56:40;99215.44;;;27.71;58.34
18697;BME280;22617;43.690;27.956;2023-06-22T08:01:45;99213.25;;;28.02;55.73
18697;BME280;22617;43.690;27.956;2023-06-22T08:06:52;99216.91;;;28.01;55.25
18697;BME280;22617;43.690;27.956;2023-06-22T08:11:56;99213.06;;;27.80;54.65
18697;BME280;22617;43.690;27.956;2023-06-22T08:16:59;99209.69;;;27.00;55.71
18697;BME280;22617;43.690;27.956;2023-06-22T08:22:05;99204.81;;;27.95;54.86
18697;BME280;22617;43.690;27.956;2023-06-22T08:27:09;99213.31;;;27.77;56.22
18697;BME280;22617;43.690;27.956;2023-06-22T08:32:14;99211.78;;;27.47;56.02
18697;BME280;22617;43.690;27.956;2023-06-22T08:37:19;99206.53;;;27.46;56.35
18697;BME280;22617;43.690;27.956;2023-06-22T08:42:22;99202.97;;;28.45;55.61
18697;BME280;22617;43.690;27.956;2023-06-22T08:47:27;99197.50;;;28.94;52.78
18697;BME280;22617;43.690;27.956;2023-06-22T08:52:32;99201.56;;;29.57;54.41
18697;BME280;22617;43.690;27.956;2023-06-22T08:57:37;99198.34;;;29.29;51.86
18697;BME280;22617;43.690;27.956;2023-06-22T09:02:41;99204.47;;;29.31;52.95
18697;BME280;22617;43.690;27.956;2023-06-22T09:07:46;99193.28;;;30.15;51.86
18697;BME280;22617;43.690;27.956;2023-06-22T09:12:50;99192.03;;;30.30;50.43
18697;BME280;22617;43.690;27.956;2023-06-22T09:17:54;99201.09;;;30.29;49.31
18697;BME280;22617;43.690;27.956;2023-06-22T09:23:00;99195.88;;;31.03;48.55
18697;BME280;22617;43.690;27.956;2023-06-22T09:28:04;99199.22;;;30.84;48.65
18697;BME280;22617;43.690;27.956;2023-06-22T09:33:08;99194.50;;;29.44;50.63
18697;BME280;22617;43.690;27.956;2023-06-22T09:38:14;99193.41;;;28.77;52.11
18697;BME280;22617;43.690;27.956;2023-06-22T09:43:17;99184.72;;;30.21;49.05
18697;BME280;22617;43.690;27.956;2023-06-22T09:48:22;99182.81;;;30.87;45.77
18697;BME280;22617;43.690;27.956;2023-06-22T09:53:27;99186.06;;;30.16;47.35
18697;BME280;22617;43.690;27.956;2023-06-22T09:58:31;99196.69;;;29.04;49.44
18697;BME280;22617;43.690;27.956;2023-06-22T10:03:35;99190.31;;;29.74;47.96
18697;BME280;22617;43.690;27.956;2023-06-22T10:08:40;99191.25;;;30.51;47.79
18697;BME280;22617;43.690;27.956;2023-06-22T10:13:44;99190.81;;;31.09;47.93
18697;BME280;22617;43.690;27.956;2023-06-22T10:18:48;99188.28;;;30.65;47.50
18697;BME280;22617;43.690;27.956;2023-06-22T10:23:53;99194.44;;;30.45;49.00
18697;BME280;22617;43.690;27.956;2023-06-22T10:28:57;99184.47;;;30.13;48.41
18697;BME280;22617;43.690;27.956;2023-06-22T10:34:17;99183.03;;;30.09;47.80
18697;BME280;22617;43.690;27.956;2023-06-22T10:39:23;99171.06;;;30.88;48.45
18697;BME280;22617;43.690;27.956;2023-06-22T10:44:26;99169.53;;;31.78;49.78
18697;BME280;22617;43.690;27.956;2023-06-22T10:49:30;99171.41;;;31.57;46.30
18697;BME280;22617;43.690;27.956;2023-06-22T10:54:37;99174.66;;;30.35;47.49
18697;BME280;22617;43.690;27.956;2023-06-22T10:59:41;99161.38;;;29.55;48.14
18697;BME280;22617;43.690;27.956;2023-06-22T11:04:45;99162.06;;;29.24;51.02
18697;BME280;22617;43.690;27.956;2023-06-22T11:09:51;99161.91;;;30.37;50.93
18697;BME280;22617;43.690;27.956;2023-06-22T11:14:55;99152.91;;;31.73;47.23
18697;BME280;22617;43.690;27.956;2023-06-22T11:20:00;99157.16;;;31.04;46.15
18697;BME280;22617;43.690;27.956;2023-06-22T11:25:08;99148.94;;;30.42;48.42
18697;BME280;22617;43.690;27.956;2023-06-22T11:30:14;99152.84;;;29.95;48.06
18697;BME280;22617;43.690;27.956;2023-06-22T11:35:18;99151.13;;;29.71;49.02
18697;BME280;22617;43.690;27.956;2023-06-22T11:40:24;99138.19;;;29.87;48.82
18697;BME280;22617;43.690;27.956;2023-06-22T11:45:28;99142.41;;;31.49;49.69
18697;BME280;22617;43.690;27.956;2023-06-22T11:50:32;99138.31;;;32.16;45.57
18697;BME280;22617;43.690;27.956;2023-06-22T11:55:39;99120.75;;;31.91;44.40
18697;BME280;22617;43.690;27.956;2023-06-22T12:00:45;99129.94;;;30.86;46.51
18697;BME280;22617;43.690;27.956;2023-06-22T12:05:53;99124.50;;;31.39;50.32
18697;BME280;22617;43.690;27.956;2023-06-22T12:10:58;99128.50;;;30.07;52.39
18697;BME280;22617;43.690;27.956;2023-06-22T12:16:03;99133.38;;;29.24;52.68
18697;BME280;22617;43.690;27.956;2023-06-22T12:21:07;99131.84;;;28.98;53.74
18697;BME280;22617;43.690;27.956;2023-06-22T12:26:12;99132.06;;;28.84;54.00
18697;BME280;22617;43.690;27.956;2023-06-22T12:31:17;99119.16;;;28.89;54.53
18697;BME280;22617;43.690;27.956;2023-06-22T12:36:20;99124.53;;;29.00;52.74
18697;BME280;22617;43.690;27.956;2023-06-22T12:41:26;99123.69;;;28.99;54.39
18697;BME280;22617;43.690;27.956;2023-06-22T12:46:30;99111.91;;;29.24;52.96
18697;BME280;22617;43.690;27.956;2023-06-22T12:51:40;99118.47;;;30.20;52.04
18697;BME280;22617;43.690;27.956;2023-06-22T12:56:46;99112.00;;;30.55;51.04
18697;BME280;22617;43.690;27.956;2023-06-22T13:01:50;99112.16;;;30.74;50.10
18697;BME280;22617;43.690;27.956;2023-06-22T13:06:54;99113.84;;;31.07;50.89
18697;BME280;22617;43.690;27.956;2023-06-22T13:12:00;99117.94;;;30.69;51.11
18697;BME280;22617;43.690;27.956;2023-06-22T13:17:04;99112.66;;;29.82;52.08
18697;BME280;22617;43.690;27.956;2023-06-22T13:22:28;99106.03;;;29.75;54.73
18697;BME280;22617;43.690;27.956;2023-06-22T13:27:34;99113.50;;;29.94;54.29
18697;BME280;22617;43.690;27.956;2023-06-22T13:32:38;99115.78;;;30.09;53.50
18697;BME280;22617;43.690;27.956;2023-06-22T13:37:44;99121.94;;;29.33;54.87
18697;BME280;22617;43.690;27.956;2023-06-22T13:42:49;99134.13;;;28.56;56.89
18697;BME280;22617;43.690;27.956;2023-06-22T13:47:57;99140.59;;;28.30;57.27
18697;BME280;22617;43.690;27.956;2023-06-22T13:53:01;99126.22;;;27.95;57.50
18697;BME280;22617;43.690;27.956;2023-06-22T13:58:06;99118.91;;;27.48;59.37
18697;BME280;22617;43.690;27.956;2023-06-22T14:03:10;99129.94;;;27.43;60.27
18697;BME280;22617;43.690;27.956;2023-06-22T14:08:14;99143.13;;;27.33;60.95
18697;BME280;22617;43.690;27.956;2023-06-22T14:13:22;99122.13;;;27.15;62.48
18697;BME280;22617;43.690;27.956;2023-06-22T14:18:26;99133.78;;;26.88;63.68
18697;BME280;22617;43.690;27.956;2023-06-22T14:23:30;99124.72;;;26.64;63.34
18697;BME280;22617;43.690;27.956;2023-06-22T14:28:35;99138.63;;;26.69;63.73
18697;BME280;22617;43.690;27.956;2023-06-22T14:33:39;99119.59;;;26.61;62.80
18697;BME280;22617;43.690;27.956;2023-06-22T14:38:43;99120.19;;;27.29;59.98
18697;BME280;22617;43.690;27.956;2023-06-22T14:43:50;99117.84;;;27.38;58.55
18697;BME280;22617;43.690;27.956;2023-06-22T14:48:54;99114.63;;;27.32;59.52
18697;BME280;22617;43.690;27.956;2023-06-22T14:53:58;99111.28;;;27.29;57.74
18697;BME280;22617;43.690;27.956;2023-06-22T14:59:03;99103.91;;;27.20;56.96
18697;BME280;22617;43.690;27.956;2023-06-22T15:04:07;99106.16;;;27.26;57.09
18697;BME280;22617;43.690;27.956;2023-06-22T15:09:11;99109.72;;;27.14;57.05
18697;BME280;22617;43.690;27.956;2023-06-22T15:14:16;99116.94;;;26.74;58.06
18697;BME280;22617;43.690;27.956;2023-06-22T15:19:20;99114.56;;;26.57;57.82
18697;BME280;22617;43.690;27.956;2023-06-22T15:24:24;99114.66;;;26.55;57.36
18697;BME280;22617;43.690;27.956;2023-06-22T15:29:29;99115.34;;;26.44;58.22
18697;BME280;22617;43.690;27.956;2023-06-22T15:34:36;99121.00;;;26.40;58.11
18697;BME280;22617;43.690;27.956;2023-06-22T15:39:40;99126.09;;;26.03;58.29
18697;BME280;22617;43.690;27.956;2023-06-22T15:44:45;99131.06;;;25.95;58.44
18697;BME280;22617;43.690;27.956;2023-06-22T15:49:50;99134.59;;;25.96;58.36
18697;BME280;22617;43.690;27.956;2023-06-22T15:54:53;99137.47;;;26.20;58.54
18697;BME280;22617;43.690;27.956;2023-06-22T16:00:01;99140.72;;;26.25;58.64
18697;BME280;22617;43.690;27.956;2023-06-22T16:05:09;99147.59;;;26.15;59.07
18697;BME280;22617;43.690;27.956;2023-06-22T16:10:13;99145.50;;;26.20;58.41
18697;BME280;22617;43.690;27.956;2023-06-22T16:15:22;99135.09;;;26.15;59.17
18697;BME280;22617;43.690;27.956;2023-06-22T16:20:26;99145.44;;;26.21;58.80
18697;BME280;22617;43.690;27.956;2023-06-22T16:25:30;99152.78;;;26.18;59.11
18697;BME280;22617;43.690;27.956;2023-06-22T16:30:35;99147.84;;;25.97;59.44
18697;BME280;22617;43.690;27.956;2023-06-22T16:35:40;99146.66;;;25.75;60.58
18697;BME280;22617;43.690;27.956;2023-06-22T16:40:46;99141.75;;;25.81;59.82
18697;BME280;22617;43.690;27.956;2023-06-22T16:45:52;99155.03;;;25.83;60.45
18697;BME280;22617;43.690;27.956;2023-06-22T16:50:56;99156.59;;;25.58;61.86
18697;BME280;22617;43.690;27.956;2023-06-22T16:56:00;99159.31;;;25.29;63.37
18697;BME280;22617;43.690;27.956;2023-06-22T17:01:06;99159.56;;;25.10;64.04
18697;BME280;22617;43.690;27.956;2023-06-22T17:06:12;99158.72;;;25.09;64.72
18697;BME280;22617;43.690;27.956;2023-06-22T17:11:18;99155.56;;;24.73;65.79
18697;BME280;22617;43.690;27.956;2023-06-22T17:16:24;99158.19;;;24.59;66.79
18697;BME280;22617;43.690;27.956;2023-06-22T17:21:28;99163.09;;;24.51;67.29
18697;BME280;22617;43.690;27.956;2023-06-22T17:26:32;99156.75;;;24.38;67.28
18697;BME280;22617;43.690;27.956;2023-06-22T17:31:38;99158.59;;;24.21;67.59
18697;BME280;22617;43.690;27.956;2023-06-22T17:36:44;99162.75;;;23.94;67.51
18697;BME280;22617;43.690;27.956;2023-06-22T17:41:49;99156.63;;;23.61;68.51
18697;BME280;22617;43.690;27.956;2023-06-22T17:46:56;99157.66;;;23.58;68.29
18697;BME280;22617;43.690;27.956;2023-06-22T17:52:01;99158.31;;;23.46;68.45
18697;BME280;22617;43.690;27.956;2023-06-22T17:57:13;99157.91;;;23.36;68.81
18697;BME280;22617;43.690;27.956;2023-06-22T18:02:23;99156.69;;;23.26;68.26
18697;BME280;22617;43.690;27.956;2023-06-22T18:07:29;99159.63;;;23.37;67.94
18697;BME280;22617;43.690;27.956;2023-06-22T18:12:35;99166.75;;;23.04;68.61
18697;BME280;22617;43.690;27.956;2023-06-22T18:17:42;99173.31;;;22.80;69.67
18697;BME280;22617;43.690;27.956;2023-06-22T18:22:48;99172.63;;;22.76;69.56
18697;BME280;22617;43.690;27.956;2023-06-22T18:27:53;99178.09;;;22.73;69.27
18697;BME280;22617;43.690;27.956;2023-06-22T18:33:00;99182.72;;;22.51;70.35
18697;BME280;22617;43.690;27.956;2023-06-22T18:38:04;99184.28;;;22.55;70.17
18697;BME280;22617;43.690;27.956;2023-06-22T18:43:08;99197.19;;;22.63;70.25
18697;BME280;22617;43.690;27.956;2023-06-22T18:48:22;99196.56;;;22.57;70.36
18697;BME280;22617;43.690;27.956;2023-06-22T18:53:27;99195.78;;;22.55;70.63
18697;BME280;22617;43.690;27.956;2023-06-22T18:58:31;99208.41;;;22.50;71.01
18697;BME280;22617;43.690;27.956;2023-06-22T19:03:37;99208.28;;;22.53;71.12
18697;BME280;22617;43.690;27.956;2023-06-22T19:09:14;99217.19;;;22.52;71.17
18697;BME280;22617;43.690;27.956;2023-06-22T19:14:21;99219.94;;;22.32;71.83
18697;BME280;22617;43.690;27.956;2023-06-22T19:19:28;99220.97;;;22.30;72.09
18697;BME280;22617;43.690;27.956;2023-06-22T19:24:47;99215.38;;;22.17;72.25
18697;BME280;22617;43.690;27.956;2023-06-22T19:29:52;99208.31;;;22.16;72.61
18697;BME280;22617;43.690;27.956;2023-06-22T19:34:59;99213.44;;;22.02;73.10
18697;BME280;22617;43.690;27.956;2023-06-22T19:40:05;99212.19;;;21.90;73.96
18697;BME280;22617;43.690;27.956;2023-06-22T19:45:15;99211.59;;;21.84;74.38
18697;BME280;22617;43.690;27.956;2023-06-22T19:50:21;99215.94;;;21.86;74.27
18697;BME280;22617;43.690;27.956;2023-06-22T19:55:27;99227.09;;;21.93;74.48
18697;BME280;22617;43.690;27.956;2023-06-22T20:00:31;99216.41;;;21.75;74.84
18697;BME280;22617;43.690;27.956;2023-06-22T20:05:42;99218.13;;;21.58;75.83
18697;BME280;22617;43.690;27.956;2023-06-22T20:10:46;99213.38;;;21.64;75.68
18697;BME280;22617;43.690;27.956;2023-06-22T20:15:50;99210.88;;;21.61;75.70
18697;BME280;22617;43.690;27.956;2023-06-22T20:20:55;99208.16;;;21.63;75.92
18697;BME280;22617;43.690;27.956;2023-06-22T20:25:59;99206.66;;;21.57;76.41
18697;BME280;22617;43.690;27.956;2023-06-22T20:31:04;99202.91;;;21.61;76.92
18697;BME280;22617;43.690;27.956;2023-06-22T20:36:10;99208.56;;;21.54;76.93
18697;BME280;22617;43.690;27.956;2023-06-22T20:41:19;99205.75;;;21.38;77.49
18697;BME280;22617;43.690;27.956;2023-06-22T20:46:22;99200.06;;;21.27;77.92
18697;BME280;22617;43.690;27.956;2023-06-22T20:51:28;99192.75;;;21.32;77.55
18697;BME280;22617;43.690;27.956;2023-06-22T20:56:34;99203.88;;;21.20;78.24
18697;BME280;22617;43.690;27.956;2023-06-22T21:01:38;99195.31;;;21.15;79.01
18697;BME280;22617;43.690;27.956;2023-06-22T21:06:50;99194.28;;;21.17;79.01
18697;BME280;22617;43.690;27.956;2023-06-22T21:11:54;99189.84;;;21.18;78.97
18697;BME280;22617;43.690;27.956;2023-06-22T21:16:58;99174.16;;;21.12;79.11
18697;BME280;22617;43.690;27.956;2023-06-22T21:22:04;99170.28;;;21.00;80.20
18697;BME280;22617;43.690;27.956;2023-06-22T21:27:08;99168.34;;;21.04;81.13
18697;BME280;22617;43.690;27.956;2023-06-22T21:32:12;99161.31;;;21.03;81.24
18697;BME280;22617;43.690;27.956;2023-06-22T21:37:17;99157.09;;;20.99;81.19
18697;BME280;22617;43.690;27.956;2023-06-22T21:42:23;99151.25;;;21.11;81.38
18697;BME280;22617;43.690;27.956;2023-06-22T21:47:29;99146.13;;;21.06;81.52
18697;BME280;22617;43.690;27.956;2023-06-22T21:52:37;99158.19;;;21.15;81.75
18697;BME280;22617;43.690;27.956;2023-06-22T21:57:41;99147.22;;;21.02;82.74
18697;BME280;22617;43.690;27.956;2023-06-22T22:02:45;99146.50;;;20.99;83.12
18697;BME280;22617;43.690;27.956;2023-06-22T22:07:50;99159.94;;;20.94;83.37
18697;BME280;22617;43.690;27.956;2023-06-22T22:12:54;99150.81;;;20.81;84.35
18697;BME280;22617;43.690;27.956;2023-06-22T22:17:58;99143.31;;;20.70;82.22
18697;BME280;22617;43.690;27.956;2023-06-22T22:23:08;99138.31;;;20.63;82.79
18697;BME280;22617;43.690;27.956;2023-06-22T22:28:12;99133.78;;;20.66;83.30
18697;BME280;22617;43.690;27.956;2023-06-22T22:33:15;99130.19;;;20.67;83.54
18697;BME280;22617;43.690;27.956;2023-06-22T22:38:21;99126.63;;;20.68;82.79
18697;BME280;22617;43.690;27.956;2023-06-22T22:43:25;99119.72;;;20.64;82.67
18697;BME280;22617;43.690;27.956;2023-06-22T22:48:29;99136.94;;;20.74;83.23
18697;BME280;22617;43.690;27.956;2023-06-22T22:53:35;99128.47;;;20.66;82.05
18697;BME280;22617;43.690;27.956;2023-06-22T22:58:39;99123.28;;;20.63;81.80
18697;BME280;22617;43.690;27.956;2023-06-22T23:03:42;99120.75;;;20.62;81.85
18697;BME280;22617;43.690;27.956;2023-06-22T23:08:49;99122.72;;;20.57;82.05
18697;BME280;22617;43.690;27.956;2023-06-22T23:13:58;99121.97;;;20.53;82.13
18697;BME280;22617;43.690;27.956;2023-06-22T23:19:02;99118.13;;;20.60;82.21
18697;BME280;22617;43.690;27.956;2023-06-22T23:24:08;99122.25;;;20.47;82.56
18697;BME280;22617;43.690;27.956;2023-06-22T23:29:12;99124.59;;;20.33;83.20
18697;BME280;22617;43.690;27.956;2023-06-22T23:34:16;99123.22;;;20.23;82.55
18697;BME280;22617;43.690;27.956;2023-06-22T23:39:21;99123.25;;;19.56;85.49
18697;BME280;22617;43.690;27.956;2023-06-22T23:44:26;99102.53;;;19.67;89.05
18697;BME280;22617;43.690;27.956;2023-06-22T23:49:30;99107.94;;;19.64;89.70
18697;BME280;22617;43.690;27.956;2023-06-22T23:54:36;99107.09;;;19.64;89.84
18697;BME280;22617;43.690;27.956;2023-06-22T23:59:40;99109.56;;;19.68;90.01
